IND weather

Indianapolis International Airport
Indianapolis, Indiana, United States

Public forecast

Using degrees Fahrenheit for public forecast. Weather courtesy of forecast.io.

Current aviation weather report (METAR) for Indianapolis International Airport

Retrieved 2019/11/15 11:32 UTC (8 minutes ago):

KIND 151132Z 30003KT 10SM SCT019 M03/M07 A3035 RMK AO2 T10331067

Aviation forecast (TAF) for Indianapolis International Airport

Retrieved 2019/11/15 06:22 UTC (5 hours ago):

TAF KIND 150520Z 1506/1612 32005KT P6SM BKN020 FM150800 VRB04KT P6SM BKN050 FM151000 VRB04KT P6SM SCT040